createdAt,value
2023-03-16T00:00:23.630Z,2.90
2023-03-16T00:02:51.889Z,2.80
2023-03-16T00:05:20.231Z,2.92
2023-03-16T00:07:49.766Z,2.72
2023-03-16T00:10:18.178Z,2.78
2023-03-16T00:12:46.339Z,2.40
2023-03-16T00:15:14.564Z,2.92
2023-03-16T00:17:42.807Z,4.38
2023-03-16T00:20:12.469Z,4.35
2023-03-16T00:22:41.918Z,3.85
2023-03-16T00:25:14.417Z,3.35
2023-03-16T00:27:42.786Z,4.40
2023-03-16T00:30:12.271Z,3.35
2023-03-16T00:32:40.633Z,4.05
2023-03-16T00:35:09.847Z,3.92
2023-03-16T00:37:39.809Z,3.45
2023-03-16T00:40:11.521Z,3.50
2023-03-16T00:42:41.488Z,3.58
2023-03-16T00:45:11.996Z,4.90
2023-03-16T00:47:40.252Z,4.25
2023-03-16T00:50:09.263Z,5.20
2023-03-16T00:52:37.481Z,3.15
2023-03-16T00:55:06.291Z,3.50
2023-03-16T00:57:34.521Z,3.13
2023-03-16T01:00:12.966Z,2.95
2023-03-16T01:02:41.633Z,3.45
2023-03-16T01:05:10.658Z,2.53
2023-03-16T01:07:38.925Z,3.10
2023-03-16T01:10:08.733Z,3.55
2023-03-16T01:12:37.082Z,3.90
2023-03-16T01:15:09.108Z,3.67
2023-03-16T01:17:37.495Z,3.72
2023-03-16T01:20:12.101Z,3.80
2023-03-16T01:22:40.436Z,2.67
2023-03-16T01:25:11.902Z,3.60
2023-03-16T01:27:43.106Z,2.70
2023-03-16T01:30:14.199Z,3.05
2023-03-16T01:32:43.451Z,3.25
2023-03-16T01:35:14.621Z,3.33
2023-03-16T01:37:42.915Z,3.70
2023-03-16T01:40:17.184Z,3.88
2023-03-16T01:42:50.175Z,3.20
2023-03-16T01:45:57.070Z,2.83
2023-03-16T01:48:28.865Z,3.15
2023-03-16T01:50:58.637Z,3.15
2023-03-16T01:53:27.029Z,2.70
2023-03-16T01:55:55.789Z,4.03
2023-03-16T01:58:24.607Z,4.22
2023-03-16T02:00:53.142Z,3.72
2023-03-16T02:03:24.199Z,4.25
2023-03-16T02:06:14.624Z,3.75
2023-03-16T02:08:50.546Z,3.60
2023-03-16T02:11:19.185Z,3.67
2023-03-16T02:14:04.302Z,4.77
2023-03-16T02:16:32.822Z,3.95
2023-03-16T02:19:01.171Z,4.40
2023-03-16T02:21:36.697Z,6.50
2023-03-16T02:24:06.413Z,4.38
2023-03-16T02:26:44.968Z,3.38
2023-03-16T02:29:30.852Z,3.22
2023-03-16T02:32:02.885Z,3.53
2023-03-16T02:34:31.548Z,3.50
2023-03-16T02:37:00.879Z,3.20
2023-03-16T02:39:29.825Z,3.60
2023-03-16T02:41:58.294Z,3.58
2023-03-16T02:44:29.213Z,3.83
2023-03-16T02:47:04.930Z,3.25
2023-03-16T02:49:37.586Z,3.28
2023-03-16T02:52:07.254Z,2.67
2023-03-16T02:54:36.061Z,3.47
2023-03-16T02:57:04.970Z,2.58
2023-03-16T02:59:34.257Z,3.72
2023-03-16T03:02:04.110Z,3.72
2023-03-16T03:04:33.094Z,3.00
2023-03-16T03:07:04.972Z,3.85
2023-03-16T03:09:44.922Z,3.83
2023-03-16T03:12:14.290Z,3.28
2023-03-16T03:14:42.607Z,3.25
2023-03-16T03:17:13.463Z,2.70
2023-03-16T03:19:42.124Z,3.00
2023-03-16T03:22:10.224Z,4.20
2023-03-16T03:24:38.438Z,4.38
2023-03-16T03:27:06.741Z,4.45
2023-03-16T03:29:38.780Z,5.57
2023-03-16T03:32:08.152Z,4.90
2023-03-16T03:34:38.405Z,5.18
2023-03-16T03:37:07.254Z,4.43
2023-03-16T03:39:39.812Z,6.18
2023-03-16T03:42:09.170Z,4.10
2023-03-16T03:44:37.440Z,3.75
2023-03-16T03:47:05.938Z,3.40
2023-03-16T03:49:34.130Z,3.72
2023-03-16T03:52:05.098Z,5.20
2023-03-16T03:54:33.606Z,4.68
2023-03-16T03:57:07.097Z,4.70
2023-03-16T03:59:40.880Z,2.97
2023-03-16T04:02:41.923Z,3.17
2023-03-16T04:05:19.249Z,3.10
2023-03-16T04:07:55.078Z,2.83
2023-03-16T04:10:25.051Z,3.80
2023-03-16T04:12:53.300Z,5.60
2023-03-16T04:15:22.469Z,5.65
2023-03-16T04:18:23.304Z,4.15
2023-03-16T04:20:53.144Z,3.30
2023-03-16T04:23:26.089Z,4.88
2023-03-16T04:25:55.920Z,5.32
2023-03-16T04:28:26.477Z,5.10
2023-03-16T04:30:55.622Z,4.15
2023-03-16T04:33:30.368Z,4.03
2023-03-16T04:35:58.927Z,4.32
2023-03-16T04:38:30.026Z,4.28
2023-03-16T04:41:02.122Z,4.97
2023-03-16T04:43:35.771Z,4.10
2023-03-16T04:46:13.761Z,5.20
2023-03-16T04:48:42.594Z,2.95
2023-03-16T04:51:11.274Z,4.82
2023-03-16T04:53:46.359Z,4.70
2023-03-16T04:56:25.247Z,5.60
2023-03-16T04:58:59.050Z,8.75
2023-03-16T05:01:32.981Z,10.80
2023-03-16T05:04:04.913Z,6.93
2023-03-16T05:06:35.861Z,7.03
2023-03-16T05:09:08.104Z,5.07
2023-03-16T05:11:39.105Z,5.20
2023-03-16T05:14:10.837Z,5.60
2023-03-16T05:16:53.376Z,4.43
2023-03-16T05:19:22.822Z,5.15
2023-03-16T05:21:51.221Z,4.53
2023-03-16T05:24:21.269Z,4.93
2023-03-16T05:26:49.569Z,4.60
2023-03-16T05:29:19.997Z,5.10
2023-03-16T05:31:48.745Z,5.03
2023-03-16T05:34:19.807Z,4.47
2023-03-16T05:36:48.361Z,5.40
2023-03-16T05:39:18.181Z,6.65
2023-03-16T05:41:50.850Z,5.88
2023-03-16T05:44:34.594Z,4.75
2023-03-16T05:47:13.998Z,6.05
2023-03-16T05:49:46.884Z,5.82
2023-03-16T05:52:35.704Z,4.90
2023-03-16T05:55:12.455Z,4.13
2023-03-16T05:57:42.982Z,4.03
2023-03-16T06:00:14.593Z,4.70
2023-03-16T06:02:51.306Z,4.10
2023-03-16T06:05:23.051Z,4.55
2023-03-16T06:07:52.173Z,4.15
2023-03-16T06:10:20.744Z,3.70
2023-03-16T06:12:51.553Z,3.65
2023-03-16T06:15:25.075Z,5.32
2023-03-16T06:17:54.084Z,6.40
2023-03-16T06:20:22.742Z,4.70
2023-03-16T06:22:51.115Z,3.90
2023-03-16T06:25:19.427Z,3.67
2023-03-16T06:27:50.263Z,4.05
2023-03-16T06:30:19.487Z,4.82
2023-03-16T06:32:47.887Z,6.35
2023-03-16T06:35:16.435Z,6.55
2023-03-16T06:37:52.241Z,5.10
2023-03-16T06:40:35.534Z,3.67
2023-03-16T06:43:06.455Z,3.95
2023-03-16T06:45:35.206Z,4.50
2023-03-16T06:48:04.792Z,5.15
2023-03-16T06:50:33.193Z,5.10
2023-03-16T06:53:01.409Z,4.25
2023-03-16T06:55:32.047Z,4.18
2023-03-16T06:58:02.163Z,5.22
2023-03-16T07:00:34.210Z,5.47
2023-03-16T07:03:03.038Z,5.18
2023-03-16T07:05:33.094Z,3.97
2023-03-16T07:08:01.746Z,4.97
2023-03-16T07:10:30.370Z,6.80
2023-03-16T07:12:58.820Z,5.25
2023-03-16T07:15:27.369Z,6.30
2023-03-16T07:17:59.516Z,4.00
2023-03-16T07:20:30.397Z,3.30
2023-03-16T07:23:00.702Z,4.70
2023-03-16T07:25:29.001Z,5.53
2023-03-16T07:27:57.190Z,4.32
2023-03-16T07:30:31.187Z,4.65
2023-03-16T07:33:01.807Z,3.22
2023-03-16T07:35:30.914Z,4.38
2023-03-16T07:37:59.766Z,4.70
2023-03-16T07:40:28.455Z,5.68
2023-03-16T07:43:04.481Z,3.92
2023-03-16T07:45:37.820Z,4.60
2023-03-16T07:48:07.711Z,3.28
2023-03-16T07:50:48.157Z,4.70
2023-03-16T07:53:16.808Z,5.32
2023-03-16T07:55:48.207Z,4.05
2023-03-16T07:58:16.528Z,4.55
2023-03-16T08:00:45.179Z,3.25
2023-03-16T08:03:15.057Z,4.22
2023-03-16T08:05:43.538Z,4.30
2023-03-16T08:08:16.089Z,5.05
2023-03-16T08:10:44.827Z,3.53
2023-03-16T08:13:18.267Z,4.93
2023-03-16T08:15:48.794Z,5.22
2023-03-16T08:18:28.129Z,4.90
2023-03-16T08:20:56.826Z,4.13
2023-03-16T08:23:26.062Z,4.13
2023-03-16T08:25:55.377Z,9.38
2023-03-16T08:28:25.972Z,4.63
2023-03-16T08:30:58.536Z,4.07
2023-03-16T08:33:38.715Z,4.18
2023-03-16T08:36:08.739Z,3.35
2023-03-16T08:38:37.299Z,4.97
2023-03-16T08:41:09.333Z,4.97
2023-03-16T08:43:37.720Z,5.63
2023-03-16T08:46:06.851Z,5.38
2023-03-16T08:48:59.069Z,6.20
2023-03-16T08:51:29.513Z,5.35
2023-03-16T08:53:57.814Z,5.22
2023-03-16T08:56:26.406Z,7.50
2023-03-16T08:58:54.572Z,6.35
2023-03-16T09:01:22.770Z,5.88
2023-03-16T09:03:51.523Z,5.22
2023-03-16T09:06:22.225Z,4.72
2023-03-16T09:08:50.466Z,5.95
2023-03-16T09:11:22.202Z,6.25
2023-03-16T09:13:53.190Z,5.40
2023-03-16T09:16:25.671Z,4.03
2023-03-16T09:18:54.170Z,4.65
2023-03-16T09:21:23.996Z,5.63
2023-03-16T09:23:52.214Z,5.47
2023-03-16T09:26:20.848Z,5.15
2023-03-16T09:28:49.624Z,4.85
2023-03-16T09:31:19.905Z,4.47
2023-03-16T09:33:48.743Z,4.55
2023-03-16T09:36:17.677Z,4.53
2023-03-16T09:38:48.606Z,4.88
2023-03-16T09:41:32.992Z,4.15
2023-03-16T09:44:23.088Z,3.40
2023-03-16T09:46:52.909Z,3.88
2023-03-16T09:49:22.656Z,4.75
2023-03-16T09:51:59.046Z,5.07
2023-03-16T09:54:39.256Z,3.95
2023-03-16T09:57:18.937Z,3.60
2023-03-16T09:59:48.007Z,4.50
2023-03-16T10:02:44.611Z,4.93
2023-03-16T10:05:14.057Z,2.90
2023-03-16T10:07:52.345Z,2.97
2023-03-16T10:10:38.402Z,3.75
2023-03-16T10:13:14.622Z,3.33
2023-03-16T10:15:43.077Z,2.85
2023-03-16T10:18:17.460Z,2.85
2023-03-16T10:20:48.049Z,4.18
2023-03-16T10:23:21.501Z,3.92
2023-03-16T10:25:52.249Z,3.08
2023-03-16T10:28:22.916Z,3.33
2023-03-16T10:30:53.148Z,3.50
2023-03-16T10:33:25.901Z,4.53
2023-03-16T10:36:01.470Z,4.38
2023-03-16T10:38:33.018Z,3.60
2023-03-16T10:41:02.785Z,3.28
2023-03-16T10:43:32.191Z,3.08
2023-03-16T10:46:02.667Z,4.88
2023-03-16T10:48:34.892Z,3.25
2023-03-16T10:51:08.244Z,3.97
2023-03-16T10:53:40.667Z,3.10
2023-03-16T10:56:20.086Z,2.50
2023-03-16T10:58:48.332Z,2.28
2023-03-16T11:01:20.730Z,2.95
2023-03-16T11:03:51.761Z,3.40
2023-03-16T11:06:22.996Z,2.53
2023-03-16T11:08:52.954Z,3.22
2023-03-16T11:11:28.748Z,2.92
2023-03-16T11:13:59.975Z,2.58
2023-03-16T11:16:37.128Z,2.92
2023-03-16T11:19:15.531Z,2.50
2023-03-16T11:21:51.027Z,3.10
2023-03-16T11:24:24.525Z,3.70
2023-03-16T11:26:58.733Z,3.08
2023-03-16T11:29:33.830Z,3.13
2023-03-16T11:32:07.401Z,3.05
2023-03-16T11:34:36.846Z,2.10
2023-03-16T11:37:17.490Z,1.88
2023-03-16T11:39:58.702Z,2.40
2023-03-16T11:42:38.952Z,2.00
2023-03-16T11:45:18.322Z,1.90
2023-03-16T11:48:23.838Z,2.00
2023-03-16T11:51:02.797Z,1.80
2023-03-16T11:53:42.726Z,1.85
2023-03-16T11:56:23.226Z,2.60
2023-03-16T11:59:02.678Z,2.53
2023-03-16T12:01:54.411Z,1.90
2023-03-16T12:04:45.250Z,1.70
2023-03-16T12:07:31.702Z,1.73
2023-03-16T12:10:26.187Z,4.75
2023-03-16T12:13:07.992Z,4.20
2023-03-16T12:15:44.986Z,2.38
2023-03-16T12:18:18.389Z,2.80
2023-03-16T12:20:53.669Z,2.42
2023-03-16T12:23:27.289Z,2.67
2023-03-16T12:25:57.986Z,2.55
2023-03-16T12:28:29.154Z,1.92
2023-03-16T12:31:12.207Z,2.25
2023-03-16T12:34:04.134Z,2.60
2023-03-16T12:36:58.992Z,2.30
2023-03-16T12:39:45.779Z,2.70
2023-03-16T12:42:36.597Z,2.80
2023-03-16T12:45:08.793Z,2.30
2023-03-16T12:47:50.830Z,2.80
2023-03-16T12:50:20.989Z,2.70
2023-03-16T12:52:51.358Z,2.72
2023-03-16T12:55:21.554Z,1.95
2023-03-16T12:57:52.263Z,2.20
2023-03-16T13:00:21.621Z,2.53
2023-03-16T13:02:57.363Z,2.63
2023-03-16T13:05:31.464Z,2.00
2023-03-16T13:08:13.765Z,1.88
2023-03-16T13:10:42.066Z,2.30
2023-03-16T13:13:13.154Z,2.47
2023-03-16T13:15:42.631Z,2.65
2023-03-16T13:18:26.210Z,2.40
2023-03-16T13:20:58.240Z,2.72
2023-03-16T13:23:28.938Z,2.08
2023-03-16T13:26:16.492Z,2.35
2023-03-16T13:28:51.386Z,2.45
2023-03-16T13:31:27.085Z,2.40
2023-03-16T13:34:00.345Z,2.47
2023-03-16T13:36:30.052Z,2.88
2023-03-16T13:39:05.492Z,2.70
2023-03-16T13:41:34.367Z,2.33
2023-03-16T13:44:02.928Z,2.38
2023-03-16T13:46:31.851Z,2.20
2023-03-16T13:49:02.246Z,2.35
2023-03-16T13:51:33.216Z,2.28
2023-03-16T13:54:06.434Z,2.58
2023-03-16T13:56:34.799Z,2.05
2023-03-16T13:59:03.512Z,2.10
2023-03-16T14:01:33.579Z,2.53
2023-03-16T14:04:08.730Z,2.40
2023-03-16T14:06:37.920Z,3.25
2023-03-16T14:09:09.332Z,2.67
2023-03-16T14:11:37.671Z,2.40
2023-03-16T14:14:16.040Z,2.30
2023-03-16T14:19:20.404Z,2.17
2023-03-16T14:21:48.734Z,2.25
2023-03-16T14:24:30.835Z,1.77
2023-03-16T14:26:59.428Z,2.08
2023-03-16T14:29:30.488Z,2.08
2023-03-16T14:32:00.136Z,2.28
2023-03-16T14:34:32.606Z,2.78
2023-03-16T14:37:12.039Z,2.25
2023-03-16T14:39:41.543Z,2.58
2023-03-16T14:42:16.791Z,2.60
2023-03-16T14:44:45.626Z,2.75
2023-03-16T14:47:23.103Z,3.05
2023-03-16T14:49:53.443Z,3.50
2023-03-16T14:52:27.382Z,2.45
2023-03-16T14:54:55.707Z,2.25
2023-03-16T14:57:24.551Z,2.25
2023-03-16T14:59:52.944Z,2.80
2023-03-16T15:02:25.301Z,2.60
2023-03-16T15:04:55.776Z,3.33
2023-03-16T15:07:26.764Z,2.70
2023-03-16T15:10:00.858Z,2.30
2023-03-16T15:12:29.075Z,2.00
2023-03-16T15:15:14.464Z,2.55
2023-03-16T15:17:43.894Z,1.90
2023-03-16T15:20:14.484Z,1.90
2023-03-16T15:22:44.597Z,2.30
2023-03-16T15:25:25.626Z,2.10
2023-03-16T15:27:55.475Z,2.00
2023-03-16T15:30:26.047Z,1.90
2023-03-16T15:32:54.559Z,1.60
2023-03-16T15:35:24.462Z,2.30
2023-03-16T15:37:54.099Z,1.90
2023-03-16T15:40:25.335Z,2.03
2023-03-16T15:42:53.618Z,2.10
2023-03-16T15:45:23.670Z,2.40
2023-03-16T15:47:53.771Z,2.30
2023-03-16T15:50:25.781Z,2.10
2023-03-16T15:52:58.211Z,2.65
2023-03-16T15:55:33.158Z,2.75
2023-03-16T15:58:03.716Z,2.35
2023-03-16T16:00:34.944Z,2.20
2023-03-16T16:03:04.625Z,2.28
2023-03-16T16:05:34.821Z,2.83
2023-03-16T16:08:02.977Z,2.60
2023-03-16T16:10:32.336Z,2.78
2023-03-16T16:13:01.141Z,3.20
2023-03-16T16:15:33.848Z,2.55
2023-03-16T16:18:20.795Z,2.10
2023-03-16T16:20:51.517Z,3.75
2023-03-16T16:23:20.068Z,4.00
2023-03-16T16:25:49.636Z,4.38
2023-03-16T16:28:20.511Z,3.40
2023-03-16T16:30:49.121Z,5.20
2023-03-16T16:33:27.626Z,3.30
2023-03-16T16:35:58.533Z,5.72
2023-03-16T16:38:26.790Z,4.80
2023-03-16T16:40:58.573Z,4.47
2023-03-16T16:43:33.633Z,3.05
2023-03-16T16:46:03.287Z,2.97
2023-03-16T16:48:33.949Z,4.00
2023-03-16T16:51:04.321Z,4.10
2023-03-16T16:53:32.689Z,5.47
2023-03-16T16:56:01.039Z,5.55
2023-03-16T16:58:29.506Z,5.70
2023-03-16T17:00:59.571Z,5.22
2023-03-16T17:03:30.021Z,5.15
2023-03-16T17:05:59.528Z,6.85
2023-03-16T17:08:29.403Z,5.55
2023-03-16T17:10:58.487Z,4.40
2023-03-16T17:13:30.457Z,5.53
2023-03-16T17:15:58.849Z,4.28
2023-03-16T17:18:27.157Z,6.32
2023-03-16T17:20:57.052Z,5.30
2023-03-16T17:23:33.150Z,3.70
2023-03-16T17:26:04.293Z,4.05
2023-03-16T17:28:40.468Z,13.63
2023-03-16T17:31:09.021Z,18.95
2023-03-16T17:33:37.242Z,12.82
2023-03-16T17:36:05.767Z,9.77
2023-03-16T17:38:35.572Z,10.38
2023-03-16T17:41:03.920Z,7.00
2023-03-16T17:43:32.948Z,7.78
2023-03-16T17:46:04.515Z,8.27
2023-03-16T17:48:33.587Z,9.65
2023-03-16T17:51:01.993Z,8.13
2023-03-16T17:53:30.241Z,11.02
2023-03-16T17:55:59.832Z,12.15
2023-03-16T17:58:30.349Z,12.05
2023-03-16T18:00:59.700Z,6.32
2023-03-16T18:03:30.626Z,7.22
2023-03-16T18:05:59.905Z,12.70
2023-03-16T18:08:29.718Z,14.90
2023-03-16T18:11:01.892Z,40.58
2023-03-16T18:13:34.671Z,44.30
2023-03-16T18:16:03.686Z,16.45
2023-03-16T18:18:35.133Z,11.48
2023-03-16T18:21:03.864Z,10.82
2023-03-16T18:23:33.693Z,9.80
2023-03-16T18:26:04.294Z,9.18
2023-03-16T18:28:33.657Z,9.57
2023-03-16T18:31:03.937Z,10.48
2023-03-16T18:33:36.454Z,14.80
2023-03-16T18:36:07.834Z,14.30
2023-03-16T18:38:38.408Z,15.48
2023-03-16T18:41:15.928Z,10.38
2023-03-16T18:43:45.160Z,10.52
2023-03-16T18:46:22.977Z,10.27
2023-03-16T18:48:52.042Z,10.00
2023-03-16T18:51:20.444Z,10.32
2023-03-16T18:53:49.509Z,13.50
2023-03-16T18:56:22.204Z,19.63
2023-03-16T18:58:51.245Z,21.02
2023-03-16T19:01:24.843Z,15.68
2023-03-16T19:03:54.165Z,13.15
2023-03-16T19:06:27.390Z,17.60
2023-03-16T19:08:56.271Z,33.47
2023-03-16T19:11:25.819Z,35.42
2023-03-16T19:13:54.838Z,39.17
2023-03-16T19:16:23.749Z,42.20
2023-03-16T19:18:52.078Z,37.03
2023-03-16T19:21:23.024Z,28.17
2023-03-16T19:23:58.235Z,25.63
2023-03-16T19:26:28.126Z,27.73
2023-03-16T19:28:56.585Z,28.95
2023-03-16T19:31:27.952Z,32.60
2023-03-16T19:33:56.942Z,37.60
2023-03-16T19:36:30.651Z,36.95
2023-03-16T19:38:59.744Z,30.92
2023-03-16T19:41:31.141Z,31.13
2023-03-16T19:44:05.048Z,16.08
2023-03-16T19:46:33.296Z,16.25
2023-03-16T19:49:01.589Z,9.73
2023-03-16T19:51:31.315Z,7.95
2023-03-16T19:54:01.285Z,7.43
2023-03-16T19:56:31.400Z,6.15
2023-03-16T19:58:59.895Z,5.15
2023-03-16T20:01:32.935Z,5.43
2023-03-16T20:04:04.294Z,4.70
2023-03-16T20:06:33.322Z,5.10
2023-03-16T20:09:01.505Z,5.07
2023-03-16T20:11:32.629Z,5.00
2023-03-16T20:14:03.536Z,4.07
2023-03-16T20:16:33.649Z,4.10
2023-03-16T20:19:05.260Z,3.90
2023-03-16T20:21:33.503Z,4.05
2023-03-16T20:24:02.361Z,4.15
2023-03-16T20:26:33.217Z,5.30
2023-03-16T20:29:02.012Z,6.03
2023-03-16T20:31:34.438Z,6.93
2023-03-16T20:34:02.811Z,7.18
2023-03-16T20:36:31.563Z,6.63
2023-03-16T20:38:59.769Z,8.00
2023-03-16T20:41:32.800Z,7.57
2023-03-16T20:44:02.216Z,8.43
2023-03-16T20:46:32.888Z,8.85
2023-03-16T20:49:01.559Z,11.23
2023-03-16T20:51:29.901Z,6.05
2023-03-16T20:53:58.210Z,17.80
2023-03-16T20:56:26.987Z,14.15
2023-03-16T20:58:57.034Z,11.75
2023-03-16T21:01:26.485Z,10.00
2023-03-16T21:03:56.880Z,10.35
2023-03-16T21:06:28.591Z,18.70
2023-03-16T21:08:59.392Z,7.68
2023-03-16T21:11:32.318Z,10.85
2023-03-16T21:14:02.340Z,16.80
2023-03-16T21:16:31.318Z,32.28
2023-03-16T21:18:59.533Z,44.22
2023-03-16T21:21:27.687Z,43.78
2023-03-16T21:23:55.859Z,50.25
2023-03-16T21:26:28.358Z,42.20
2023-03-16T21:29:00.431Z,33.78
2023-03-16T21:31:30.070Z,9.48
2023-03-16T21:33:58.255Z,23.40
2023-03-16T21:36:27.472Z,32.90
2023-03-16T21:38:57.172Z,43.50
2023-03-16T21:41:25.769Z,9.18
2023-03-16T21:43:54.975Z,10.52
2023-03-16T21:46:25.552Z,20.48
2023-03-16T21:48:56.844Z,20.90
2023-03-16T21:51:29.003Z,22.08
2023-03-16T21:53:58.091Z,20.95
2023-03-16T21:56:26.687Z,18.02
2023-03-16T21:58:55.718Z,21.40
2023-03-16T22:01:27.696Z,10.40
2023-03-16T22:04:01.222Z,9.35
2023-03-16T22:06:30.246Z,8.48
2023-03-16T22:08:59.720Z,8.75
2023-03-16T22:11:29.891Z,8.50
2023-03-16T22:14:00.332Z,7.40
2023-03-16T22:16:33.437Z,7.28
2023-03-16T22:19:04.100Z,9.40
2023-03-16T22:21:36.431Z,11.25
2023-03-16T22:24:06.438Z,25.27
2023-03-16T22:26:35.034Z,15.02
2023-03-16T22:29:03.410Z,14.88
2023-03-16T22:31:34.992Z,11.75
2023-03-16T22:34:05.586Z,14.68
2023-03-16T22:36:35.200Z,14.80
2023-03-16T22:39:08.200Z,12.02
2023-03-16T22:41:36.448Z,12.00
2023-03-16T22:44:04.660Z,12.90
2023-03-16T22:46:32.922Z,12.93
2023-03-16T22:49:01.152Z,10.82
2023-03-16T22:51:34.164Z,8.88
2023-03-16T22:54:04.803Z,9.50
2023-03-16T22:56:33.707Z,9.45
2023-03-16T22:59:04.033Z,9.85
2023-03-16T23:01:35.288Z,8.25
2023-03-16T23:04:03.786Z,8.40
2023-03-16T23:06:33.663Z,8.85
2023-03-16T23:09:02.387Z,8.23
2023-03-16T23:11:34.146Z,6.72
2023-03-16T23:14:02.821Z,8.23
2023-03-16T23:16:35.837Z,7.25
2023-03-16T23:19:12.520Z,7.43
2023-03-16T23:21:52.233Z,7.90
2023-03-16T23:24:20.850Z,7.40
2023-03-16T23:26:49.937Z,7.97
2023-03-16T23:29:18.442Z,8.38
2023-03-16T23:31:46.756Z,7.93
2023-03-16T23:34:17.447Z,8.13
2023-03-16T23:36:45.916Z,8.57
2023-03-16T23:39:15.600Z,8.95
2023-03-16T23:41:46.941Z,9.38
2023-03-16T23:44:18.310Z,9.88
2023-03-16T23:46:47.004Z,8.98
2023-03-16T23:49:20.203Z,9.40
2023-03-16T23:51:48.542Z,9.45
2023-03-16T23:54:20.759Z,9.85
2023-03-16T23:56:49.158Z,9.88
2023-03-16T23:59:19.102Z,10.13
